Harrow, Canada
Current Conditions -  °F | °C
As of 1:34 AM on Monday 26 Jan 2015 (Local Time) from KONZ Reporting Station
Broken Clouds Broken Clouds  
Wind Chill:   Ceiling: 11000
Heat Index: 16°   Visibility: 10mi
Dew Point:   Wind: 13mph
Humidity: 62%   Direction: 30°NNE
Pressure: 29.95"   Gusts: 16mph
Location:  42.03°N, 82.92°W
Report Text: KONZ 260634Z AUTO 03011G14KT 10SM BKN110 M09/M15 A2995 RMK AO2
Loading
Personal Weather Stations






























Interactive Weather Map New forecast layout! Learn more

10-Day Weather Forecast

Advertisements
Track Severe Weather on mobile